Time;durP1;ratioP1;P1;durP2;ratioP2;P2;SDS_P1;SDS_P2;PMS_P1;PMS_P2;Temp;Humidity;BMP_temperature;BMP_pressure;BME280_temperature;BME280_humidity;BME280_pressure;Samples;Min_cycle;Max_cycle;Signal;HPM_P1;HPM_P2
2022/06/05 00:02:08;;;;;;;10.05;9.05;;;;;16.70;94214.00;;;;7390803;19;20174;-79
2022/06/05 00:04:56;;;;;;;10.18;9.18;;;;;16.60;94214.00;;;;7392886;19;20583;-78
2022/06/05 00:07:59;;;;;;;10.60;9.60;;;;;16.60;94214.00;;;;7393090;19;20144;-77
2022/06/05 00:10:33;;;;;;;10.32;9.32;;;;;16.60;94204.00;;;;7391818;19;20393;-75
2022/06/05 00:13:38;;;;;;;10.60;9.38;;;;;16.60;94199.00;;;;7392394;19;20128;-77
2022/06/05 00:16:08;;;;;;;10.05;9.13;;;;;16.60;94192.00;;;;7391631;19;20489;-76
2022/06/05 00:18:44;;;;;;;10.77;9.20;;;;;16.60;94183.00;;;;7393220;19;20128;-77
2022/06/05 00:21:13;;;;;;;11.40;10.15;;;;;16.60;94176.00;;;;7390804;19;20640;-78
2022/06/05 00:23:41;;;;;;;10.60;9.43;;;;;16.50;94166.00;;;;7391595;19;20592;-77
2022/06/05 00:26:25;;;;;;;11.73;9.45;;;;;16.50;94172.00;;;;7393762;19;20138;-78
2022/06/05 00:29:11;;;;;;;14.25;10.75;;;;;16.50;94184.00;;;;7391572;19;20256;-77
2022/06/05 00:32:08;;;;;;;11.70;10.05;;;;;16.50;94185.00;;;;7391544;19;20152;-75
2022/06/05 00:34:36;;;;;;;11.70;10.55;;;;;16.50;94183.00;;;;7392178;19;20125;-77
2022/06/05 00:37:16;;;;;;;13.10;10.10;;;;;16.50;94184.00;;;;7389144;19;20683;-77
2022/06/05 00:40:11;;;;;;;11.63;10.43;;;;;16.50;94192.00;;;;7390792;19;20161;-76
2022/06/05 00:42:46;;;;;;;10.95;9.95;;;;;16.40;94191.00;;;;7382962;19;20624;-78
2022/06/05 00:45:14;;;;;;;11.23;10.15;;;;;16.40;94195.00;;;;7390430;19;20140;-77
2022/06/05 00:47:44;;;;;;;13.50;11.98;;;;;16.60;94204.00;;;;7389095;19;20147;-78
2022/06/05 00:50:23;;;;;;;14.10;11.73;;;;;16.70;94210.00;;;;7391615;19;21181;-78
2022/06/05 00:52:55;;;;;;;12.00;9.95;;;;;16.70;94224.00;;;;7392073;19;20726;-77
2022/06/05 00:55:34;;;;;;;9.20;8.30;;;;;16.70;94229.00;;;;7390842;19;20117;-77
2022/06/05 00:58:02;;;;;;;8.90;8.00;;;;;16.80;94227.00;;;;7389242;19;20628;-78
2022/06/05 01:00:40;;;;;;;8.35;7.55;;;;;16.90;94237.00;;;;7389413;19;20153;-77
2022/06/05 01:03:10;;;;;;;10.43;9.30;;;;;16.80;94250.00;;;;7391428;19;20142;-76
2022/06/05 01:05:44;;;;;;;10.55;9.50;;;;;16.60;94260.00;;;;7390555;19;20136;-77
2022/06/05 01:08:14;;;;;;;10.35;9.35;;;;;16.60;94250.00;;;;7390664;19;20117;-76
2022/06/05 01:11:06;;;;;;;10.40;9.40;;;;;16.50;94238.00;;;;7391866;19;20615;-76
2022/06/05 01:14:24;;;;;;;11.18;10.07;;;;;16.50;94227.00;;;;7389166;19;20148;-77
2022/06/05 01:17:02;;;;;;;12.10;10.90;;;;;16.60;94222.00;;;;7389067;19;20147;-77
2022/06/05 01:19:53;;;;;;;9.68;8.77;;;;;16.60;94221.00;;;;7389807;19;20486;-78
2022/06/05 01:22:31;;;;;;;10.60;9.45;;;;;16.50;94220.00;;;;7388130;19;20172;-77
2022/06/05 01:25:34;;;;;;;9.50;8.68;;;;;16.50;94222.00;;;;7390142;19;20141;-77
2022/06/05 01:28:09;;;;;;;12.35;11.15;;;;;16.50;94211.00;;;;7396303;19;20592;-77
2022/06/05 01:30:54;;;;;;;10.70;9.48;;;;;16.50;94212.00;;;;7396932;19;20136;-77
2022/06/05 01:33:27;;;;;;;10.85;9.75;;;;;16.60;94213.00;;;;7400000;19;20143;-77
2022/06/05 01:36:39;;;;;;;11.68;10.40;;;;;16.60;94208.00;;;;7398472;19;20621;-76
2022/06/05 01:39:45;;;;;;;10.45;9.07;;;;;16.60;94207.00;;;;7399227;19;20117;-77
2022/06/05 01:42:32;;;;;;;9.77;8.77;;;;;16.50;94192.00;;;;7397815;19;20148;-76
2022/06/05 01:45:15;;;;;;;9.32;8.43;;;;;16.40;94192.00;;;;7398032;19;20526;-76
2022/06/05 01:47:56;;;;;;;10.27;8.85;;;;;16.40;94187.00;;;;7399170;19;20603;-77
2022/06/05 01:50:43;;;;;;;9.52;8.73;;;;;16.40;94167.00;;;;7397069;19;20128;-77
2022/06/05 01:53:41;;;;;;;10.40;9.25;;;;;16.30;94151.00;;;;7398604;19;20125;-76
2022/06/05 01:56:27;;;;;;;10.73;8.95;;;;;16.30;94146.00;;;;7396904;19;20137;-77
2022/06/05 01:59:13;;;;;;;11.95;10.60;;;;;16.40;94150.00;;;;7397041;19;20137;-77
2022/06/05 02:01:45;;;;;;;11.65;10.18;;;;;16.30;94130.00;;;;7394556;19;20120;-78
2022/06/05 02:04:25;;;;;;;13.45;11.15;;;;;16.30;94116.00;;;;7397309;19;20480;-77
2022/06/05 02:07:34;;;;;;;12.57;11.15;;;;;16.20;94095.00;;;;7396865;19;20133;-77
2022/06/05 02:10:16;;;;;;;13.30;11.90;;;;;16.20;94071.00;;;;7395767;19;20141;-76
2022/06/05 02:12:43;;;;;;;12.90;11.45;;;;;16.10;94058.00;;;;7397270;19;20128;-76
2022/06/05 02:15:18;;;;;;;12.90;11.45;;;;;16.10;94054.00;;;;7396221;19;20483;-78
2022/06/05 02:17:46;;;;;;;14.05;12.68;;;;;16.10;94047.00;;;;7393777;19;20121;-77
2022/06/05 02:20:14;;;;;;;13.45;12.15;;;;;16.10;94032.00;;;;7397152;19;20615;-77
2022/06/05 02:22:50;;;;;;;14.27;12.88;;;;;16.10;94010.00;;;;7398333;19;20128;-77
2022/06/05 02:25:22;;;;;;;13.93;12.50;;;;;16.10;93997.00;;;;7397294;19;20527;-79
2022/06/05 02:28:01;;;;;;;13.38;12.15;;;;;16.10;93982.00;;;;7395522;19;20200;-76
2022/06/05 02:30:39;;;;;;;14.18;12.77;;;;;16.10;93978.00;;;;7395187;19;20140;-78
2022/06/05 02:33:34;;;;;;;13.30;11.95;;;;;16.30;93970.00;;;;7396157;19;20587;-76
2022/06/05 02:36:34;;;;;;;17.45;12.48;;;;;16.10;93967.00;;;;7395877;19;20599;-77
2022/06/05 02:39:42;;;;;;;13.98;12.57;;;;;16.20;93975.00;;;;7396058;19;20737;-78
2022/06/05 02:42:37;;;;;;;14.07;12.57;;;;;16.30;93983.00;;;;7394904;19;20607;-76
2022/06/05 02:45:35;;;;;;;17.25;11.93;;;;;16.30;94012.00;;;;7394741;19;20144;-77
2022/06/05 02:48:25;;;;;;;12.95;11.18;;;;;16.30;94021.00;;;;7395110;19;20618;-76
2022/06/05 02:51:13;;;;;;;15.18;11.73;;;;;16.20;94027.00;;;;7394641;19;20129;-76
2022/06/05 02:53:49;;;;;;;13.25;11.75;;;;;16.20;94019.00;;;;7394597;19;20145;-76
2022/06/05 02:56:26;;;;;;;12.70;11.38;;;;;16.30;94004.00;;;;7394469;19;20188;-77
2022/06/05 02:58:55;;;;;;;14.07;12.57;;;;;16.30;93988.00;;;;7395022;19;20129;-77
2022/06/05 03:04:15;;;;;;;13.38;12.07;;;;;16.30;93980.00;;;;7394598;19;20148;-79
2022/06/05 03:06:43;;;;;;;13.38;11.73;;;;;16.30;93979.00;;;;7393978;19;20133;-77
2022/06/05 03:09:12;;;;;;;14.60;12.48;;;;;16.40;93976.00;;;;7395139;19;20121;-76
2022/06/05 03:11:46;;;;;;;14.85;12.23;;;;;16.40;93976.00;;;;7393794;19;20141;-77
2022/06/05 03:14:13;;;;;;;13.23;11.93;;;;;16.30;93999.00;;;;7392946;19;20148;-77
2022/06/05 03:16:41;;;;;;;14.25;11.63;;;;;16.30;94022.00;;;;7393216;19;20129;-76
2022/06/05 03:19:16;;;;;;;13.48;12.07;;;;;16.30;94053.00;;;;7397481;19;20591;-76
2022/06/05 03:21:43;;;;;;;15.40;11.13;;;;;16.40;94068.00;;;;7393577;19;20129;-78
2022/06/05 03:24:11;;;;;;;12.90;11.00;;;;;16.50;94078.00;;;;7392659;19;20515;-77
2022/06/05 03:26:45;;;;;;;11.65;10.50;;;;;16.40;94114.00;;;;7394085;19;20154;-79
2022/06/05 03:29:13;;;;;;;10.00;9.10;;;;;16.40;94156.00;;;;7394193;19;20588;-77
2022/06/05 03:31:40;;;;;;;12.10;10.88;;;;;16.50;94192.00;;;;7393077;19;20190;-75
2022/06/05 03:34:16;;;;;;;12.27;10.95;;;;;16.30;94214.00;;;;7393278;19;20144;-74
2022/06/05 03:36:57;;;;;;;12.30;11.20;;;;;16.30;94209.00;;;;7393382;19;20604;-75
2022/06/05 03:39:33;;;;;;;13.35;11.95;;;;;16.40;94194.00;;;;7388858;19;20113;-75
2022/06/05 03:42:01;;;;;;;12.68;11.38;;;;;16.30;94176.00;;;;7396862;19;20152;-76
2022/06/05 03:44:29;;;;;;;13.40;12.02;;;;;16.10;94157.00;;;;7391951;19;20141;-77
2022/06/05 03:47:04;;;;;;;13.68;12.40;;;;;16.00;94142.00;;;;7394442;19;20147;-76
2022/06/05 03:49:33;;;;;;;15.85;14.05;;;;;15.90;94123.00;;;;7391884;19;20140;-76
2022/06/05 03:52:02;;;;;;;18.10;14.50;;;;;15.80;94093.00;;;;7392339;19;20156;-75
2022/06/05 03:54:37;;;;;;;15.98;14.30;;;;;15.70;94104.00;;;;7392769;19;20145;-74
2022/06/05 03:57:06;;;;;;;18.25;15.10;;;;;15.70;94094.00;;;;7393762;19;20129;-76
2022/06/05 03:59:35;;;;;;;17.00;14.95;;;;;15.70;94102.00;;;;7392963;19;20141;-74
2022/06/05 04:02:09;;;;;;;15.75;14.10;;;;;15.70;94095.00;;;;7392224;19;20144;-73
2022/06/05 04:04:37;;;;;;;15.25;13.63;;;;;15.70;94102.00;;;;7392682;19;21035;-76
2022/06/05 04:07:04;;;;;;;16.08;14.38;;;;;15.70;94101.00;;;;7393203;19;20140;-74
2022/06/05 04:09:38;;;;;;;17.30;15.50;;;;;15.70;94097.00;;;;7392697;19;20148;-73
2022/06/05 04:12:05;;;;;;;15.60;13.63;;;;;15.70;94090.00;;;;7391777;19;20140;-74
2022/06/05 04:14:33;;;;;;;17.00;15.10;;;;;15.70;94087.00;;;;7392635;19;20137;-74
2022/06/05 04:17:07;;;;;;;20.95;16.40;;;;;15.70;94078.00;;;;7392182;19;20599;-76
2022/06/05 04:19:34;;;;;;;17.98;16.15;;;;;15.70;94064.00;;;;7391726;19;20485;-74
2022/06/05 04:22:02;;;;;;;20.67;17.23;;;;;15.70;94067.00;;;;7390819;19;20192;-75
2022/06/05 04:24:37;;;;;;;19.05;17.15;;;;;15.70;94090.00;;;;7393025;19;20139;-75
2022/06/05 04:27:04;;;;;;;21.13;18.38;;;;;15.70;94111.00;;;;7391932;19;20133;-75
2022/06/05 04:29:33;;;;;;;20.85;18.65;;;;;15.80;94129.00;;;;7391509;19;20607;-76
2022/06/05 04:32:08;;;;;;;22.67;18.15;;;;;15.80;94150.00;;;;7392478;19;20151;-75
2022/06/05 04:34:35;;;;;;;21.35;18.98;;;;;15.80;94154.00;;;;7392944;19;20149;-76
2022/06/05 04:37:24;;;;;;;24.10;18.63;;;;;15.80;94168.00;;;;7389463;19;20196;-75
2022/06/05 04:39:59;;;;;;;21.92;18.40;;;;;15.70;94185.00;;;;7392030;19;20137;-74
2022/06/05 04:42:26;;;;;;;35.30;20.65;;;;;15.80;94195.00;;;;7388449;19;20480;-75
2022/06/05 04:44:54;;;;;;;23.65;20.45;;;;;15.80;94204.00;;;;7390093;19;20132;-75
2022/06/05 04:47:29;;;;;;;31.77;20.48;;;;;15.80;94225.00;;;;7391773;19;20595;-74
2022/06/05 04:49:57;;;;;;;27.27;20.60;;;;;15.90;94256.00;;;;7389052;19;20501;-76
2022/06/05 04:52:24;;;;;;;21.50;19.17;;;;;15.80;94261.00;;;;7390963;19;20141;-75
2022/06/05 04:54:58;;;;;;;23.23;18.98;;;;;15.80;94240.00;;;;7393733;19;20129;-77
2022/06/05 04:57:26;;;;;;;24.55;21.33;;;;;15.80;94217.00;;;;7390215;19;20137;-75
2022/06/05 05:00:07;;;;;;;27.17;21.55;;;;;15.80;94225.00;;;;7389672;19;20152;-75
2022/06/05 05:02:42;;;;;;;24.75;22.13;;;;;15.90;94202.00;;;;7390427;19;20133;-78
2022/06/05 05:05:10;;;;;;;27.77;21.90;;;;;15.80;94186.00;;;;7391515;19;20143;-75
2022/06/05 05:07:37;;;;;;;27.67;20.92;;;;;15.80;94159.00;;;;7390593;19;20136;-75
2022/06/05 05:10:11;;;;;;;27.85;20.52;;;;;15.80;94122.00;;;;7392019;19;20135;-77
2022/06/05 05:12:39;;;;;;;27.98;21.48;;;;;15.80;94108.00;;;;7391253;19;20140;-75
2022/06/05 05:15:09;;;;;;;27.20;19.90;;;;;15.80;94096.00;;;;7390395;19;20152;-76
2022/06/05 05:17:43;;;;;;;24.45;18.48;;;;;15.80;94090.00;;;;7389840;19;20117;-76
2022/06/05 05:20:11;;;;;;;27.90;20.90;;;;;15.80;94084.00;;;;7384914;19;20125;-79
2022/06/05 05:22:39;;;;;;;26.23;20.20;;;;;15.90;94079.00;;;;7389031;19;20152;-78
2022/06/05 05:25:13;;;;;;;21.75;17.85;;;;;15.90;94078.00;;;;7394754;19;20116;-80
2022/06/05 05:27:41;;;;;;;20.23;16.25;;;;;15.80;94064.00;;;;7393708;19;20148;-77
2022/06/05 05:30:10;;;;;;;17.67;14.15;;;;;15.80;94067.00;;;;7391545;19;20148;-77
2022/06/05 05:32:45;;;;;;;14.65;13.15;;;;;15.70;94060.00;;;;7395694;19;20171;-78
2022/06/05 05:35:13;;;;;;;16.27;14.68;;;;;15.80;94077.00;;;;7396226;19;20140;-77
2022/06/05 05:37:40;;;;;;;20.55;14.55;;;;;15.80;94078.00;;;;7395778;19;20180;-76
2022/06/05 05:43:00;;;;;;;21.85;17.65;;;;;15.80;94084.00;;;;7397082;19;20138;-77
2022/06/05 05:45:34;;;;;;;16.63;14.85;;;;;15.80;94100.00;;;;7399397;19;20129;-78
2022/06/05 05:48:04;;;;;;;17.63;14.35;;;;;15.90;94110.00;;;;7394639;19;20604;-77
2022/06/05 05:50:35;;;;;;;18.05;14.70;;;;;16.00;94120.00;;;;7398024;19;20125;-76
2022/06/05 05:53:09;;;;;;;14.57;13.15;;;;;15.90;94132.00;;;;7393132;19;20162;-77
2022/06/05 05:55:37;;;;;;;15.50;14.10;;;;;15.90;94137.00;;;;7392426;19;20144;-77
2022/06/05 05:58:05;;;;;;;18.15;14.93;;;;;15.90;94126.00;;;;7394582;19;20139;-77
2022/06/05 06:00:39;;;;;;;19.17;14.68;;;;;15.90;94120.00;;;;7394000;19;20211;-79
2022/06/05 06:03:07;;;;;;;16.75;14.98;;;;;15.80;94112.00;;;;7395322;19;20141;-77
2022/06/05 06:05:34;;;;;;;15.30;13.68;;;;;15.60;94099.00;;;;7397230;19;20132;-79
2022/06/05 06:08:08;;;;;;;13.32;12.02;;;;;15.60;94098.00;;;;7396097;19;20121;-78
2022/06/05 06:10:36;;;;;;;14.00;12.60;;;;;15.60;94103.00;;;;7392612;19;20149;-78
2022/06/05 06:13:04;;;;;;;15.68;14.02;;;;;15.60;94096.00;;;;7395356;19;20445;-77
2022/06/05 06:15:38;;;;;;;13.90;12.70;;;;;15.50;94091.00;;;;7399292;19;20143;-78
2022/06/05 06:18:06;;;;;;;14.10;12.60;;;;;15.50;94086.00;;;;7398207;19;20157;-78
2022/06/05 06:20:33;;;;;;;14.48;13.07;;;;;15.50;94088.00;;;;7398960;19;20148;-78
2022/06/05 06:23:07;;;;;;;15.68;14.00;;;;;15.50;94071.00;;;;7397672;19;20149;-77
2022/06/05 06:25:37;;;;;;;16.75;14.18;;;;;15.50;94060.00;;;;7399531;19;20220;-78
2022/06/05 06:28:07;;;;;;;17.52;15.27;;;;;15.50;94050.00;;;;7398471;19;20521;-78
2022/06/05 06:30:41;;;;;;;20.13;14.20;;;;;15.50;94050.00;;;;7399957;19;20490;-79
2022/06/05 06:33:09;;;;;;;15.35;13.85;;;;;15.40;94051.00;;;;7400639;19;20492;-78
2022/06/05 06:35:42;;;;;;;16.77;13.90;;;;;15.40;94050.00;;;;7401242;19;20215;-78
2022/06/05 06:38:23;;;;;;;13.77;12.38;;;;;15.40;94037.00;;;;7397665;19;20212;-79
2022/06/05 06:41:08;;;;;;;15.77;13.23;;;;;15.30;94031.00;;;;7400339;19;20195;-80
2022/06/05 06:43:45;;;;;;;13.23;11.82;;;;;15.30;94018.00;;;;7399190;19;20552;-82
2022/06/05 06:46:15;;;;;;;15.65;12.02;;;;;15.30;94005.00;;;;7399018;19;20476;-83
2022/06/05 06:48:52;;;;;;;14.15;11.65;;;;;15.30;93995.00;;;;7400572;19;20232;-82
2022/06/05 06:51:40;;;;;;;12.65;11.38;;;;;15.30;93972.00;;;;7399778;19;20140;-81
2022/06/05 06:54:59;;;;;;;14.57;11.88;;;;;15.30;93958.00;;;;7398928;19;20588;-80
2022/06/05 06:57:30;;;;;;;14.82;12.15;;;;;15.20;93962.00;;;;7398036;19;20604;-77
2022/06/05 07:00:06;;;;;;;13.05;10.30;;;;;15.30;93969.00;;;;7394265;19;20727;-78
2022/06/05 07:02:34;;;;;;;13.10;11.70;;;;;15.30;93991.00;;;;7396057;19;20584;-78
2022/06/05 07:05:01;;;;;;;12.43;11.13;;;;;15.40;94008.00;;;;7398707;19;20155;-78
2022/06/05 07:07:35;;;;;;;11.77;10.60;;;;;15.40;94010.00;;;;7399345;19;20145;-78
2022/06/05 07:10:04;;;;;;;13.50;10.90;;;;;15.40;94007.00;;;;7395627;19;20190;-77
2022/06/05 07:12:34;;;;;;;14.30;11.23;;;;;15.50;93987.00;;;;7398234;19;20548;-77
2022/06/05 07:15:09;;;;;;;12.93;10.63;;;;;15.50;93979.00;;;;7399828;19;20177;-75
2022/06/05 07:17:36;;;;;;;12.75;10.40;;;;;15.50;93979.00;;;;7401544;19;20137;-77
2022/06/05 07:20:04;;;;;;;10.48;9.48;;;;;15.60;93966.00;;;;7398270;19;20145;-76
2022/06/05 07:22:39;;;;;;;14.45;10.10;;;;;15.60;93952.00;;;;7395413;19;20180;-76
2022/06/05 07:25:08;;;;;;;13.30;9.80;;;;;15.60;93972.00;;;;7400030;19;20138;-78
2022/06/05 07:27:36;;;;;;;11.20;10.13;;;;;15.70;93991.00;;;;7399751;19;20168;-77
2022/06/05 07:30:12;;;;;;;10.40;9.40;;;;;15.80;93974.00;;;;7396731;19;20140;-77
2022/06/05 07:32:40;;;;;;;13.23;9.55;;;;;15.90;93967.00;;;;7398990;19;20521;-76
2022/06/05 07:35:09;;;;;;;12.25;9.45;;;;;16.00;93969.00;;;;7402853;19;20468;-76
2022/06/05 07:37:52;;;;;;;9.00;8.10;;;;;16.10;93967.00;;;;7401224;19;20164;-77
2022/06/05 07:40:44;;;;;;;9.38;8.43;;;;;16.20;93976.00;;;;7398923;19;20148;-78
2022/06/05 07:43:21;;;;;;;9.43;8.52;;;;;16.10;93951.00;;;;7398235;19;20137;-77
2022/06/05 07:45:49;;;;;;;10.18;8.70;;;;;16.30;93944.00;;;;7397858;19;20148;-76
2022/06/05 07:48:21;;;;;;;9.20;8.30;;;;;16.60;93932.00;;;;7397039;19;20141;-77
2022/06/05 07:56:44;;;;;;;9.05;7.50;;;;;16.90;93948.00;;;;7399177;19;20125;-76
2022/06/05 07:59:12;;;;;;;8.15;7.35;;;;;17.00;93939.00;;;;7398449;19;20592;-78
2022/06/05 08:01:59;;;;;;;10.55;7.72;;;;;17.30;93940.00;;;;7397170;19;20143;-77
2022/06/05 08:04:36;;;;;;;8.23;7.43;;;;;17.40;93938.00;;;;7397760;19;20176;-76
2022/06/05 08:07:06;;;;;;;9.23;6.90;;;;;17.30;93943.00;;;;7398445;19;20145;-76
2022/06/05 08:09:42;;;;;;;8.05;6.72;;;;;17.40;93935.00;;;;7400257;19;20136;-76
2022/06/05 08:12:12;;;;;;;7.13;6.40;;;;;17.50;93915.00;;;;7398306;19;20180;-77
2022/06/05 08:14:43;;;;;;;8.88;7.00;;;;;17.70;93914.00;;;;7398563;19;20134;-77
2022/06/05 08:17:28;;;;;;;6.55;5.95;;;;;17.80;93906.00;;;;7399173;19;20481;-77
2022/06/05 08:19:56;;;;;;;6.60;5.55;;;;;17.90;93911.00;;;;7394760;19;20148;-77
2022/06/05 08:22:31;;;;;;;5.60;5.10;;;;;18.00;93922.00;;;;7395136;19;20503;-75
2022/06/05 08:24:59;;;;;;;8.05;5.53;;;;;18.10;93922.00;;;;7398574;19;20137;-76
2022/06/05 08:27:28;;;;;;;5.50;5.00;;;;;18.10;93929.00;;;;7395117;19;20599;-77
2022/06/05 08:30:02;;;;;;;7.00;5.18;;;;;17.90;93919.00;;;;7395317;19;20140;-76
2022/06/05 08:32:31;;;;;;;8.10;5.47;;;;;17.90;93908.00;;;;7396540;19;20153;-76
2022/06/05 08:34:59;;;;;;;10.50;6.68;;;;;18.10;93896.00;;;;7396784;19;20141;-77
2022/06/05 08:43:46;;;;;;;14.50;9.20;;;;;18.90;93894.00;;;;7396288;19;20147;-76
2022/06/05 08:46:37;;;;;;;11.32;8.40;;;;;19.00;93906.00;;;;7393880;19;20133;-77
2022/06/05 08:49:14;;;;;;;13.43;8.43;;;;;19.40;93901.00;;;;7399311;19;20608;-77
2022/06/05 08:51:48;;;;;;;11.82;8.18;;;;;19.70;93909.00;;;;7398301;19;20624;-79
2022/06/05 08:54:37;;;;;;;13.55;8.98;;;;;19.80;93927.00;;;;7395993;19;20188;-78
2022/06/05 08:57:14;;;;;;;10.27;7.38;;;;;19.90;93932.00;;;;7396011;19;20144;-78
2022/06/05 08:59:58;;;;;;;9.85;7.65;;;;;20.40;93922.00;;;;7393950;19;20197;-79
2022/06/05 09:02:38;;;;;;;10.35;7.30;;;;;20.40;93927.00;;;;7395705;19;20145;-77
2022/06/05 09:05:35;;;;;;;7.95;5.97;;;;;19.60;93942.00;;;;7394492;19;20472;-75
2022/06/05 09:08:29;;;;;;;8.68;6.50;;;;;19.30;93922.00;;;;7396495;19;20484;-77
2022/06/05 09:11:25;;;;;;;11.45;5.95;;;;;19.10;93921.00;;;;7398188;19;20561;-77
2022/06/05 09:14:23;;;;;;;7.68;6.40;;;;;19.40;93920.00;;;;7397387;19;20180;-78
2022/06/05 09:17:03;;;;;;;6.70;5.93;;;;;19.90;93932.00;;;;7396428;19;20494;-76
2022/06/05 09:19:40;;;;;;;7.53;6.28;;;;;20.20;93944.00;;;;7395213;19;20141;-76
2022/06/05 09:22:37;;;;;;;8.95;6.60;;;;;20.70;93950.00;;;;7395172;19;20148;-74
2022/06/05 09:25:21;;;;;;;7.72;6.53;;;;;20.60;93972.00;;;;7396328;19;20155;-76
2022/06/05 09:28:29;;;;;;;6.95;6.10;;;;;20.00;93999.00;;;;7394112;19;20151;-75
2022/06/05 09:31:21;;;;;;;10.20;7.15;;;;;19.40;93986.00;;;;7396070;19;20129;-79
2022/06/05 09:33:58;;;;;;;8.82;6.35;;;;;19.50;93991.00;;;;7393832;19;20152;-77
2022/06/05 09:36:28;;;;;;;7.28;6.57;;;;;19.60;93985.00;;;;7394889;19;20168;-76
2022/06/05 09:39:34;;;;;;;8.45;7.40;;;;;19.70;93987.00;;;;7393491;19;20176;-77
2022/06/05 09:42:15;;;;;;;7.68;6.82;;;;;20.80;93972.00;;;;7394662;19;20149;-77
2022/06/05 09:45:44;;;;;;;10.10;7.45;;;;;21.90;93972.00;;;;7393772;19;20192;-76
2022/06/05 09:48:51;;;;;;;8.90;8.00;;;;;22.00;93967.00;;;;7395709;19;20167;-76
2022/06/05 09:51:25;;;;;;;10.43;8.15;;;;;21.50;93963.00;;;;7404023;19;20149;-76
2022/06/05 09:54:02;;;;;;;10.35;8.75;;;;;21.70;93982.00;;;;7400517;19;20168;-77
2022/06/05 09:59:35;;;;;;;9.57;8.18;;;;;22.60;93982.00;;;;7404236;19;20140;-77
2022/06/05 10:02:10;;;;;;;9.27;8.20;;;;;22.50;93979.00;;;;7403853;19;20152;-75
2022/06/05 10:04:39;;;;;;;9.57;8.43;;;;;22.10;93972.00;;;;7402298;19;20587;-75
2022/06/05 10:07:34;;;;;;;12.20;8.85;;;;;21.60;93971.00;;;;7403514;19;20145;-76
2022/06/05 10:10:19;;;;;;;10.63;8.73;;;;;21.90;93962.00;;;;7401636;19;20480;-76
2022/06/05 10:13:08;;;;;;;10.30;7.75;;;;;22.50;93960.00;;;;7401139;19;20141;-77
2022/06/05 10:16:02;;;;;;;9.93;7.88;;;;;23.10;93948.00;;;;7401211;19;20155;-76
2022/06/05 10:18:41;;;;;;;11.38;8.93;;;;;22.90;93949.00;;;;7400444;19;20133;-78
2022/06/05 10:21:20;;;;;;;9.52;8.30;;;;;23.20;93954.00;;;;7399363;19;20516;-74
2022/06/05 10:24:12;;;;;;;11.70;7.78;;;;;22.90;93957.00;;;;7400544;19;20441;-76
2022/06/05 10:26:48;;;;;;;7.22;6.53;;;;;22.20;93961.00;;;;7398059;19;20543;-75
2022/06/05 10:29:22;;;;;;;8.38;6.28;;;;;21.90;93974.00;;;;7400475;19;20145;-78
2022/06/05 10:32:15;;;;;;;6.93;6.22;;;;;21.70;93983.00;;;;7398697;19;20609;-74
2022/06/05 10:35:10;;;;;;;8.77;6.43;;;;;21.30;93981.00;;;;7397690;19;20144;-77
2022/06/05 10:38:15;;;;;;;6.30;5.70;;;;;21.20;93988.00;;;;7400006;19;20528;-76
2022/06/05 10:40:55;;;;;;;6.78;5.47;;;;;21.20;93981.00;;;;7396797;19;20148;-77
2022/06/05 10:43:32;;;;;;;7.05;5.30;;;;;21.00;93983.00;;;;7403650;19;20129;-76
2022/06/05 10:46:01;;;;;;;7.70;5.55;;;;;21.00;93975.00;;;;7400089;19;20153;-77
2022/06/05 10:48:42;;;;;;;6.05;5.45;;;;;21.00;93973.00;;;;7403628;19;20152;-77
2022/06/05 10:51:39;;;;;;;6.32;5.43;;;;;20.90;93965.00;;;;7405530;19;20169;-78
2022/06/05 10:54:32;;;;;;;9.27;5.65;;;;;21.00;93966.00;;;;7403198;19;20145;-76
2022/06/05 10:57:18;;;;;;;5.85;5.18;;;;;21.20;93978.00;;;;7402104;19;20124;-79
2022/06/05 11:00:16;;;;;;;5.85;5.35;;;;;21.30;93975.00;;;;7399414;19;20500;-77
2022/06/05 11:03:34;;;;;;;9.10;5.72;;;;;21.20;93973.00;;;;7403776;19;20151;-77
2022/06/05 11:06:24;;;;;;;7.63;4.90;;;;;21.30;93970.00;;;;7404089;19;20129;-77
2022/06/05 11:09:15;;;;;;;5.50;5.00;;;;;21.30;93981.00;;;;7401612;19;20154;-77
2022/06/05 11:15:54;;;;;;;5.05;4.25;;;;;22.30;93965.00;;;;7404554;19;20152;-78
2022/06/05 11:19:02;;;;;;;5.45;4.50;;;;;23.20;93960.00;;;;7402838;19;20149;-79
2022/06/05 11:21:30;;;;;;;5.25;4.75;;;;;23.70;93966.00;;;;7399240;19;20228;-77
2022/06/05 11:24:13;;;;;;;5.35;4.43;;;;;23.50;93961.00;;;;7401286;19;20128;-75
2022/06/05 11:27:08;;;;;;;6.70;4.20;;;;;23.40;93964.00;;;;7401956;19;20467;-75
2022/06/05 11:30:07;;;;;;;6.53;4.30;;;;;23.60;93945.00;;;;7407675;19;20159;-78
2022/06/05 11:32:51;;;;;;;6.18;3.85;;;;;23.20;93946.00;;;;7404539;19;20517;-76
2022/06/05 11:35:34;;;;;;;4.95;3.45;;;;;23.50;93928.00;;;;7405449;19;20479;-78
2022/06/05 11:38:24;;;;;;;9.80;4.40;;;;;24.10;93916.00;;;;7402991;19;20156;-76
2022/06/05 11:41:11;;;;;;;3.70;3.40;;;;;24.60;93899.00;;;;7402658;19;20172;-74
2022/06/05 11:43:41;;;;;;;6.90;3.47;;;;;25.40;93906.00;;;;7402534;19;20654;-76
2022/06/05 11:46:57;;;;;;;5.18;3.53;;;;;25.60;93919.00;;;;7400078;19;20173;-76
2022/06/05 11:49:50;;;;;;;3.95;3.45;;;;;25.20;93903.00;;;;7398596;19;20645;-76
2022/06/05 11:52:32;;;;;;;5.22;3.22;;;;;25.10;93898.00;;;;7395394;19;20141;-76
2022/06/05 11:55:20;;;;;;;4.22;3.33;;;;;24.30;93903.00;;;;7397806;19;20148;-79
2022/06/05 11:58:19;;;;;;;5.25;3.30;;;;;23.60;93898.00;;;;7395123;19;20488;-77
2022/06/05 12:01:01;;;;;;;5.75;3.70;;;;;23.70;93916.00;;;;7387037;19;20152;-75
2022/06/05 12:03:43;;;;;;;7.45;3.20;;;;;23.50;93921.00;;;;7392538;19;20583;-76
2022/06/05 12:06:21;;;;;;;4.75;3.45;;;;;23.60;93919.00;;;;7392634;19;20869;-75
2022/06/05 12:09:01;;;;;;;4.28;3.38;;;;;23.50;93930.00;;;;7393415;19;20514;-76
2022/06/05 12:11:40;;;;;;;4.57;3.15;;;;;23.10;93925.00;;;;7391803;19;20227;-76
2022/06/05 12:14:18;;;;;;;8.07;3.40;;;;;23.00;93924.00;;;;7391360;19;20813;-77
2022/06/05 12:17:23;;;;;;;8.23;3.60;;;;;22.40;93925.00;;;;7392742;19;20186;-77
2022/06/05 12:20:04;;;;;;;5.75;3.47;;;;;22.30;93926.00;;;;7389634;19;20600;-77
2022/06/05 12:22:48;;;;;;;8.93;3.55;;;;;22.50;93909.00;;;;7388193;19;20565;-75
2022/06/05 12:25:32;;;;;;;6.88;3.08;;;;;22.70;93910.00;;;;7393847;19;20169;-75
2022/06/05 12:28:15;;;;;;;5.10;3.13;;;;;22.70;93904.00;;;;7388873;19;20151;-75
2022/06/05 12:30:57;;;;;;;4.75;3.00;;;;;22.50;93904.00;;;;7390397;19;20148;-76
2022/06/05 12:33:53;;;;;;;5.90;3.13;;;;;22.20;93912.00;;;;7393207;19;20614;-77
2022/06/05 12:36:51;;;;;;;4.90;3.10;;;;;22.30;93915.00;;;;7390222;19;20144;-78
2022/06/05 12:39:31;;;;;;;5.68;3.28;;;;;22.10;93923.00;;;;7389876;19;20188;-77
2022/06/05 12:42:25;;;;;;;6.70;3.50;;;;;21.40;93937.00;;;;7389792;19;20137;-78
2022/06/05 12:45:03;;;;;;;4.43;3.00;;;;;21.10;93929.00;;;;7387354;19;20186;-79
2022/06/05 12:48:13;;;;;;;6.35;3.03;;;;;20.90;93922.00;;;;7392637;19;20150;-75
2022/06/05 12:50:45;;;;;;;8.77;3.20;;;;;21.10;93939.00;;;;7388798;19;20148;-79
2022/06/05 12:53:37;;;;;;;5.53;3.28;;;;;21.30;93931.00;;;;7390043;19;20437;-79
2022/06/05 12:56:44;;;;;;;6.60;3.40;;;;;21.30;93922.00;;;;7387697;19;20148;-76
2022/06/05 12:59:30;;;;;;;8.38;3.22;;;;;21.80;93919.00;;;;7390677;19;20158;-75
2022/06/05 13:02:05;;;;;;;8.32;3.45;;;;;21.80;93924.00;;;;7387948;19;20141;-77
2022/06/05 13:05:01;;;;;;;6.10;3.30;;;;;21.80;93935.00;;;;7388894;19;20170;-79
2022/06/05 13:08:01;;;;;;;5.95;2.92;;;;;21.50;93942.00;;;;7389234;19;20180;-77
2022/06/05 13:10:41;;;;;;;7.07;3.33;;;;;21.20;93941.00;;;;7391907;19;20151;-78
2022/06/05 13:13:19;;;;;;;6.15;3.10;;;;;20.90;93947.00;;;;7388502;19;20137;-76
2022/06/05 13:15:58;;;;;;;6.55;3.28;;;;;20.60;93948.00;;;;7387908;19;20148;-77
2022/06/05 13:18:42;;;;;;;3.80;2.90;;;;;20.50;93947.00;;;;7389935;19;20137;-78
2022/06/05 13:21:49;;;;;;;3.42;2.67;;;;;19.90;93953.00;;;;7391253;19;20152;-78
2022/06/05 13:24:36;;;;;;;5.47;2.75;;;;;19.80;93943.00;;;;7398160;19;20773;-77
2022/06/05 13:27:34;;;;;;;3.38;2.47;;;;;20.00;93943.00;;;;7400067;19;20624;-78
2022/06/05 13:30:20;;;;;;;11.35;2.63;;;;;20.40;93932.00;;;;7397866;19;20152;-79
2022/06/05 13:33:33;;;;;;;7.10;2.85;;;;;21.30;93913.00;;;;7399282;19;20147;-79
2022/06/05 13:36:07;;;;;;;4.18;2.65;;;;;21.60;93915.00;;;;7397079;19;20132;-78